sensor_id;sensor_type;location;lat;lon;timestamp;temperature;humidity
37956;DHT22;23776;51.592;7.180;2024-01-30T00:01:49;7.40;1.00
37956;DHT22;23776;51.592;7.180;2024-01-30T00:04:14;7.40;1.00
37956;DHT22;23776;51.592;7.180;2024-01-30T00:06:41;7.30;1.00
37956;DHT22;23776;51.592;7.180;2024-01-30T00:09:07;7.30;1.00
37956;DHT22;23776;51.592;7.180;2024-01-30T00:11:34;7.20;1.00
37956;DHT22;23776;51.592;7.180;2024-01-30T00:14:00;7.20;1.00
37956;DHT22;23776;51.592;7.180;2024-01-30T00:16:26;7.20;1.00
37956;DHT22;23776;51.592;7.180;2024-01-30T00:18:52;7.10;1.00
37956;DHT22;23776;51.592;7.180;2024-01-30T00:21:19;7.00;1.00
37956;DHT22;23776;51.592;7.180;2024-01-30T00:23:44;7.00;1.00
37956;DHT22;23776;51.592;7.180;2024-01-30T00:26:10;6.90;1.00
37956;DHT22;23776;51.592;7.180;2024-01-30T00:28:37;6.90;1.00
37956;DHT22;23776;51.592;7.180;2024-01-30T00:31:03;6.80;1.00
37956;DHT22;23776;51.592;7.180;2024-01-30T00:33:28;6.80;8.00
37956;DHT22;23776;51.592;7.180;2024-01-30T00:35:54;6.80;7.90
37956;DHT22;23776;51.592;7.180;2024-01-30T00:38:19;6.80;12.60
37956;DHT22;23776;51.592;7.180;2024-01-30T00:40:45;6.70;10.60
37956;DHT22;23776;51.592;7.180;2024-01-30T00:43:10;6.70;12.10
37956;DHT22;23776;51.592;7.180;2024-01-30T00:45:36;6.70;14.50
37956;DHT22;23776;51.592;7.180;2024-01-30T00:48:02;6.80;17.60
37956;DHT22;23776;51.592;7.180;2024-01-30T00:50:27;6.80;16.70
37956;DHT22;23776;51.592;7.180;2024-01-30T00:52:53;6.80;15.70
37956;DHT22;23776;51.592;7.180;2024-01-30T00:55:18;6.70;17.40
37956;DHT22;23776;51.592;7.180;2024-01-30T00:57:44;6.70;17.70
37956;DHT22;23776;51.592;7.180;2024-01-30T01:00:10;6.70;20.80
37956;DHT22;23776;51.592;7.180;2024-01-30T01:02:36;6.70;20.50
37956;DHT22;23776;51.592;7.180;2024-01-30T01:05:02;6.70;22.50
37956;DHT22;23776;51.592;7.180;2024-01-30T01:07:28;6.70;21.40
37956;DHT22;23776;51.592;7.180;2024-01-30T01:09:54;6.70;22.00
37956;DHT22;23776;51.592;7.180;2024-01-30T01:12:19;6.70;19.00
37956;DHT22;23776;51.592;7.180;2024-01-30T01:14:45;6.70;15.00
37956;DHT22;23776;51.592;7.180;2024-01-30T01:17:10;6.70;16.40
37956;DHT22;23776;51.592;7.180;2024-01-30T01:19:36;6.70;16.70
37956;DHT22;23776;51.592;7.180;2024-01-30T01:22:02;6.60;15.30
37956;DHT22;23776;51.592;7.180;2024-01-30T01:24:30;6.60;15.90
37956;DHT22;23776;51.592;7.180;2024-01-30T01:26:56;6.60;17.60
37956;DHT22;23776;51.592;7.180;2024-01-30T01:29:22;6.60;14.70
37956;DHT22;23776;51.592;7.180;2024-01-30T01:31:56;6.50;13.00
37956;DHT22;23776;51.592;7.180;2024-01-30T01:34:22;6.60;18.20
37956;DHT22;23776;51.592;7.180;2024-01-30T01:36:49;6.50;16.70
37956;DHT22;23776;51.592;7.180;2024-01-30T01:39:15;6.50;15.80
37956;DHT22;23776;51.592;7.180;2024-01-30T01:41:41;6.50;14.70
37956;DHT22;23776;51.592;7.180;2024-01-30T01:44:07;6.50;14.70
37956;DHT22;23776;51.592;7.180;2024-01-30T01:46:33;6.40;17.10
37956;DHT22;23776;51.592;7.180;2024-01-30T01:49:00;6.40;17.80
37956;DHT22;23776;51.592;7.180;2024-01-30T01:51:28;6.40;22.80
37956;DHT22;23776;51.592;7.180;2024-01-30T01:53:55;6.40;23.80
37956;DHT22;23776;51.592;7.180;2024-01-30T01:56:23;6.40;24.00
37956;DHT22;23776;51.592;7.180;2024-01-30T01:58:50;6.40;22.50
37956;DHT22;23776;51.592;7.180;2024-01-30T02:01:19;6.40;22.70
37956;DHT22;23776;51.592;7.180;2024-01-30T02:03:46;6.40;22.70
37956;DHT22;23776;51.592;7.180;2024-01-30T02:06:15;6.40;23.20
37956;DHT22;23776;51.592;7.180;2024-01-30T02:08:41;6.40;22.90
37956;DHT22;23776;51.592;7.180;2024-01-30T02:11:07;6.30;23.50
37956;DHT22;23776;51.592;7.180;2024-01-30T02:13:33;6.30;23.60
37956;DHT22;23776;51.592;7.180;2024-01-30T02:16:00;6.40;25.80
37956;DHT22;23776;51.592;7.180;2024-01-30T02:18:26;6.40;23.90
37956;DHT22;23776;51.592;7.180;2024-01-30T02:20:54;6.40;24.60
37956;DHT22;23776;51.592;7.180;2024-01-30T02:23:20;6.40;24.80
37956;DHT22;23776;51.592;7.180;2024-01-30T02:25:46;6.40;22.30
37956;DHT22;23776;51.592;7.180;2024-01-30T02:28:12;6.30;20.90
37956;DHT22;23776;51.592;7.180;2024-01-30T02:30:44;6.30;19.80
37956;DHT22;23776;51.592;7.180;2024-01-30T02:33:10;6.20;20.40
37956;DHT22;23776;51.592;7.180;2024-01-30T02:35:35;6.20;18.80
37956;DHT22;23776;51.592;7.180;2024-01-30T02:38:01;6.20;18.10
37956;DHT22;23776;51.592;7.180;2024-01-30T02:40:27;6.20;16.40
37956;DHT22;23776;51.592;7.180;2024-01-30T02:42:52;6.10;16.50
37956;DHT22;23776;51.592;7.180;2024-01-30T02:45:18;6.20;23.50
37956;DHT22;23776;51.592;7.180;2024-01-30T02:47:44;6.10;21.70
37956;DHT22;23776;51.592;7.180;2024-01-30T02:50:09;6.10;23.00
37956;DHT22;23776;51.592;7.180;2024-01-30T02:52:35;6.10;26.40
37956;DHT22;23776;51.592;7.180;2024-01-30T02:55:01;6.10;27.60
37956;DHT22;23776;51.592;7.180;2024-01-30T02:57:27;6.10;28.70
37956;DHT22;23776;51.592;7.180;2024-01-30T02:59:53;6.10;30.70
37956;DHT22;23776;51.592;7.180;2024-01-30T03:02:18;6.10;28.30
37956;DHT22;23776;51.592;7.180;2024-01-30T03:04:44;6.10;28.50
37956;DHT22;23776;51.592;7.180;2024-01-30T03:07:09;6.10;33.40
37956;DHT22;23776;51.592;7.180;2024-01-30T03:09:36;6.00;33.70
37956;DHT22;23776;51.592;7.180;2024-01-30T03:12:02;6.00;35.30
37956;DHT22;23776;51.592;7.180;2024-01-30T03:14:31;6.00;35.30
37956;DHT22;23776;51.592;7.180;2024-01-30T03:16:57;6.00;32.70
37956;DHT22;23776;51.592;7.180;2024-01-30T03:19:23;6.00;35.30
37956;DHT22;23776;51.592;7.180;2024-01-30T03:21:48;6.00;47.70
37956;DHT22;23776;51.592;7.180;2024-01-30T03:24:14;6.10;47.90
37956;DHT22;23776;51.592;7.180;2024-01-30T03:26:39;6.10;47.20
37956;DHT22;23776;51.592;7.180;2024-01-30T03:29:05;6.10;44.30
37956;DHT22;23776;51.592;7.180;2024-01-30T03:31:30;6.10;40.90
37956;DHT22;23776;51.592;7.180;2024-01-30T03:33:56;6.10;40.70
37956;DHT22;23776;51.592;7.180;2024-01-30T03:36:21;6.10;38.50
37956;DHT22;23776;51.592;7.180;2024-01-30T03:38:47;6.10;38.70
37956;DHT22;23776;51.592;7.180;2024-01-30T03:41:13;6.10;33.90
37956;DHT22;23776;51.592;7.180;2024-01-30T03:43:38;6.10;33.40
37956;DHT22;23776;51.592;7.180;2024-01-30T03:46:04;6.00;33.10
37956;DHT22;23776;51.592;7.180;2024-01-30T03:48:30;6.00;31.10
37956;DHT22;23776;51.592;7.180;2024-01-30T03:50:55;6.00;32.30
37956;DHT22;23776;51.592;7.180;2024-01-30T03:53:21;6.00;33.90
37956;DHT22;23776;51.592;7.180;2024-01-30T03:55:47;6.00;36.20
37956;DHT22;23776;51.592;7.180;2024-01-30T03:58:13;6.00;36.90
37956;DHT22;23776;51.592;7.180;2024-01-30T04:00:38;6.00;41.80
37956;DHT22;23776;51.592;7.180;2024-01-30T04:03:04;6.00;46.50
37956;DHT22;23776;51.592;7.180;2024-01-30T04:05:30;6.00;50.70
37956;DHT22;23776;51.592;7.180;2024-01-30T04:07:55;6.10;50.70
37956;DHT22;23776;51.592;7.180;2024-01-30T04:10:21;6.10;52.10
37956;DHT22;23776;51.592;7.180;2024-01-30T04:12:47;6.10;54.90
37956;DHT22;23776;51.592;7.180;2024-01-30T04:15:13;6.20;57.20
37956;DHT22;23776;51.592;7.180;2024-01-30T04:17:39;6.10;57.80
37956;DHT22;23776;51.592;7.180;2024-01-30T04:20:05;6.20;58.80
37956;DHT22;23776;51.592;7.180;2024-01-30T04:22:31;6.20;64.10
37956;DHT22;23776;51.592;7.180;2024-01-30T04:24:57;6.30;69.60
37956;DHT22;23776;51.592;7.180;2024-01-30T04:27:22;6.40;69.70
37956;DHT22;23776;51.592;7.180;2024-01-30T04:29:48;6.40;69.80
37956;DHT22;23776;51.592;7.180;2024-01-30T04:32:13;6.30;69.90
37956;DHT22;23776;51.592;7.180;2024-01-30T04:34:39;6.40;70.70
37956;DHT22;23776;51.592;7.180;2024-01-30T04:37:04;6.50;72.60
37956;DHT22;23776;51.592;7.180;2024-01-30T04:39:30;6.40;72.50
37956;DHT22;23776;51.592;7.180;2024-01-30T04:41:58;6.50;75.20
37956;DHT22;23776;51.592;7.180;2024-01-30T04:44:24;6.60;72.30
37956;DHT22;23776;51.592;7.180;2024-01-30T04:46:50;6.60;72.40
37956;DHT22;23776;51.592;7.180;2024-01-30T04:49:15;6.60;75.50
37956;DHT22;23776;51.592;7.180;2024-01-30T04:51:41;6.70;80.70
37956;DHT22;23776;51.592;7.180;2024-01-30T04:54:06;6.80;78.50
37956;DHT22;23776;51.592;7.180;2024-01-30T04:56:32;6.80;76.50
37956;DHT22;23776;51.592;7.180;2024-01-30T04:58:57;6.80;75.20
37956;DHT22;23776;51.592;7.180;2024-01-30T05:01:23;6.80;72.00
37956;DHT22;23776;51.592;7.180;2024-01-30T05:03:48;6.80;70.10
37956;DHT22;23776;51.592;7.180;2024-01-30T05:06:24;6.80;68.50
37956;DHT22;23776;51.592;7.180;2024-01-30T05:08:50;6.80;66.60
37956;DHT22;23776;51.592;7.180;2024-01-30T05:11:15;6.80;61.80
37956;DHT22;23776;51.592;7.180;2024-01-30T05:13:41;6.80;59.20
37956;DHT22;23776;51.592;7.180;2024-01-30T05:16:06;6.80;55.40
37956;DHT22;23776;51.592;7.180;2024-01-30T05:18:32;6.80;56.10
37956;DHT22;23776;51.592;7.180;2024-01-30T05:20:57;6.70;51.80
37956;DHT22;23776;51.592;7.180;2024-01-30T05:23:23;6.70;54.30
37956;DHT22;23776;51.592;7.180;2024-01-30T05:25:48;6.70;55.20
37956;DHT22;23776;51.592;7.180;2024-01-30T05:28:14;6.70;50.40
37956;DHT22;23776;51.592;7.180;2024-01-30T05:30:40;6.60;52.60
37956;DHT22;23776;51.592;7.180;2024-01-30T05:33:05;6.60;52.70
37956;DHT22;23776;51.592;7.180;2024-01-30T05:35:31;6.60;55.70
37956;DHT22;23776;51.592;7.180;2024-01-30T05:37:56;6.60;54.20
37956;DHT22;23776;51.592;7.180;2024-01-30T05:40:22;6.50;57.50
37956;DHT22;23776;51.592;7.180;2024-01-30T05:42:47;6.50;59.10
37956;DHT22;23776;51.592;7.180;2024-01-30T05:47:39;6.50;58.50
37956;DHT22;23776;51.592;7.180;2024-01-30T05:50:05;6.40;58.30
37956;DHT22;23776;51.592;7.180;2024-01-30T05:52:31;6.40;59.80
37956;DHT22;23776;51.592;7.180;2024-01-30T05:54:57;6.30;64.00
37956;DHT22;23776;51.592;7.180;2024-01-30T05:57:22;6.30;62.10
37956;DHT22;23776;51.592;7.180;2024-01-30T05:59:48;6.30;62.30
37956;DHT22;23776;51.592;7.180;2024-01-30T06:02:14;6.30;64.60
37956;DHT22;23776;51.592;7.180;2024-01-30T06:04:39;6.30;64.30
37956;DHT22;23776;51.592;7.180;2024-01-30T06:07:05;9.00;66.40
37956;DHT22;23776;51.592;7.180;2024-01-30T06:09:32;6.20;64.90
37956;DHT22;23776;51.592;7.180;2024-01-30T06:11:57;6.20;65.90
37956;DHT22;23776;51.592;7.180;2024-01-30T06:14:23;6.20;69.10
37956;DHT22;23776;51.592;7.180;2024-01-30T06:16:49;6.30;72.20
37956;DHT22;23776;51.592;7.180;2024-01-30T06:19:15;6.30;69.50
37956;DHT22;23776;51.592;7.180;2024-01-30T06:21:41;6.30;70.60
37956;DHT22;23776;51.592;7.180;2024-01-30T06:24:06;6.20;71.50
37956;DHT22;23776;51.592;7.180;2024-01-30T06:26:32;6.30;79.90
37956;DHT22;23776;51.592;7.180;2024-01-30T06:28:58;6.30;80.90
37956;DHT22;23776;51.592;7.180;2024-01-30T06:31:23;6.30;80.90
37956;DHT22;23776;51.592;7.180;2024-01-30T06:33:49;6.40;80.10
37956;DHT22;23776;51.592;7.180;2024-01-30T06:36:15;6.40;78.20
37956;DHT22;23776;51.592;7.180;2024-01-30T06:38:41;6.40;77.70
37956;DHT22;23776;51.592;7.180;2024-01-30T06:41:06;6.40;77.60
37956;DHT22;23776;51.592;7.180;2024-01-30T06:43:32;6.50;74.40
37956;DHT22;23776;51.592;7.180;2024-01-30T06:45:58;6.50;74.60
37956;DHT22;23776;51.592;7.180;2024-01-30T06:48:24;6.50;75.50
37956;DHT22;23776;51.592;7.180;2024-01-30T06:50:52;6.60;74.90
37956;DHT22;23776;51.592;7.180;2024-01-30T06:53:19;6.60;75.50
37956;DHT22;23776;51.592;7.180;2024-01-30T06:55:44;6.70;73.00
37956;DHT22;23776;51.592;7.180;2024-01-30T06:58:10;6.60;71.60
37956;DHT22;23776;51.592;7.180;2024-01-30T07:00:35;6.60;72.20
37956;DHT22;23776;51.592;7.180;2024-01-30T07:03:01;6.70;71.90
37956;DHT22;23776;51.592;7.180;2024-01-30T07:05:27;6.70;73.80
37956;DHT22;23776;51.592;7.180;2024-01-30T07:07:52;6.80;74.50
37956;DHT22;23776;51.592;7.180;2024-01-30T07:10:18;6.80;73.20
37956;DHT22;23776;51.592;7.180;2024-01-30T07:12:44;6.90;80.50
37956;DHT22;23776;51.592;7.180;2024-01-30T07:15:10;6.90;78.80
37956;DHT22;23776;51.592;7.180;2024-01-30T07:17:36;7.00;80.80
37956;DHT22;23776;51.592;7.180;2024-01-30T07:20:02;7.10;80.80
37956;DHT22;23776;51.592;7.180;2024-01-30T07:22:31;7.30;84.80
37956;DHT22;23776;51.592;7.180;2024-01-30T07:24:57;7.30;81.80
37956;DHT22;23776;51.592;7.180;2024-01-30T07:27:22;7.50;76.00
37956;DHT22;23776;51.592;7.180;2024-01-30T07:29:48;7.40;76.80
37956;DHT22;23776;51.592;7.180;2024-01-30T07:32:14;7.60;73.70
37956;DHT22;23776;51.592;7.180;2024-01-30T07:34:39;7.60;72.70
37956;DHT22;23776;51.592;7.180;2024-01-30T07:37:06;7.90;68.90
37956;DHT22;23776;51.592;7.180;2024-01-30T07:39:34;7.90;68.90
37956;DHT22;23776;51.592;7.180;2024-01-30T07:41:59;8.00;65.10
37956;DHT22;23776;51.592;7.180;2024-01-30T07:44:25;8.00;64.20
37956;DHT22;23776;51.592;7.180;2024-01-30T07:46:51;8.20;59.10
37956;DHT22;23776;51.592;7.180;2024-01-30T07:49:16;8.30;53.30
37956;DHT22;23776;51.592;7.180;2024-01-30T07:51:42;8.50;51.70
37956;DHT22;23776;51.592;7.180;2024-01-30T07:54:08;8.50;37.20
37956;DHT22;23776;51.592;7.180;2024-01-30T07:56:34;8.50;41.30
37956;DHT22;23776;51.592;7.180;2024-01-30T07:58:59;8.70;39.80
37956;DHT22;23776;51.592;7.180;2024-01-30T08:01:25;8.80;31.00
37956;DHT22;23776;51.592;7.180;2024-01-30T08:03:51;8.90;23.00
37956;DHT22;23776;51.592;7.180;2024-01-30T08:06:17;9.10;13.10
37956;DHT22;23776;51.592;7.180;2024-01-30T08:08:42;9.10;10.70
37956;DHT22;23776;51.592;7.180;2024-01-30T08:11:08;9.30;1.00
37956;DHT22;23776;51.592;7.180;2024-01-30T08:13:34;9.30;1.00
37956;DHT22;23776;51.592;7.180;2024-01-30T08:15:59;9.50;1.00
37956;DHT22;23776;51.592;7.180;2024-01-30T08:18:25;9.50;1.00
37956;DHT22;23776;51.592;7.180;2024-01-30T08:20:50;9.50;1.00
37956;DHT22;23776;51.592;7.180;2024-01-30T08:23:16;9.50;1.00
37956;DHT22;23776;51.592;7.180;2024-01-30T08:25:41;9.50;1.00
37956;DHT22;23776;51.592;7.180;2024-01-30T08:28:07;9.60;1.00
37956;DHT22;23776;51.592;7.180;2024-01-30T08:30:33;9.60;1.00
37956;DHT22;23776;51.592;7.180;2024-01-30T08:32:59;9.60;1.00
37956;DHT22;23776;51.592;7.180;2024-01-30T08:35:24;9.60;1.00
37956;DHT22;23776;51.592;7.180;2024-01-30T08:37:50;9.70;1.00
37956;DHT22;23776;51.592;7.180;2024-01-30T08:40:15;9.80;1.00
37956;DHT22;23776;51.592;7.180;2024-01-30T08:42:41;9.90;1.00
37956;DHT22;23776;51.592;7.180;2024-01-30T08:45:07;10.00;1.00
37956;DHT22;23776;51.592;7.180;2024-01-30T08:47:33;10.00;1.00
37956;DHT22;23776;51.592;7.180;2024-01-30T08:49:59;10.10;1.00
37956;DHT22;23776;51.592;7.180;2024-01-30T08:52:24;10.10;1.00
37956;DHT22;23776;51.592;7.180;2024-01-30T08:54:50;10.00;1.00
37956;DHT22;23776;51.592;7.180;2024-01-30T08:57:15;10.10;1.00
37956;DHT22;23776;51.592;7.180;2024-01-30T08:59:41;10.10;1.00
37956;DHT22;23776;51.592;7.180;2024-01-30T09:02:09;10.20;1.00
37956;DHT22;23776;51.592;7.180;2024-01-30T09:04:35;10.20;1.00
37956;DHT22;23776;51.592;7.180;2024-01-30T09:07:01;10.20;1.00
37956;DHT22;23776;51.592;7.180;2024-01-30T09:09:26;10.10;1.00
37956;DHT22;23776;51.592;7.180;2024-01-30T09:11:52;10.20;1.00
37956;DHT22;23776;51.592;7.180;2024-01-30T09:14:17;10.30;1.00
37956;DHT22;23776;51.592;7.180;2024-01-30T09:16:43;10.30;1.00
37956;DHT22;23776;51.592;7.180;2024-01-30T09:19:08;10.30;1.00
37956;DHT22;23776;51.592;7.180;2024-01-30T09:21:34;10.40;1.00
37956;DHT22;23776;51.592;7.180;2024-01-30T09:24:03;10.40;1.00
37956;DHT22;23776;51.592;7.180;2024-01-30T09:26:31;10.40;1.00
37956;DHT22;23776;51.592;7.180;2024-01-30T09:28:57;10.50;1.00
37956;DHT22;23776;51.592;7.180;2024-01-30T09:31:23;10.50;1.00
37956;DHT22;23776;51.592;7.180;2024-01-30T09:33:48;10.60;1.00
37956;DHT22;23776;51.592;7.180;2024-01-30T09:36:14;10.60;1.00
37956;DHT22;23776;51.592;7.180;2024-01-30T09:38:45;10.50;1.00
37956;DHT22;23776;51.592;7.180;2024-01-30T09:41:10;10.50;1.00
37956;DHT22;23776;51.592;7.180;2024-01-30T09:43:38;10.50;1.00
37956;DHT22;23776;51.592;7.180;2024-01-30T09:46:04;10.60;1.00
37956;DHT22;23776;51.592;7.180;2024-01-30T09:48:31;10.60;1.00
37956;DHT22;23776;51.592;7.180;2024-01-30T09:50:57;10.70;1.00
37956;DHT22;23776;51.592;7.180;2024-01-30T09:53:23;10.80;99.90
37956;DHT22;23776;51.592;7.180;2024-01-30T09:55:50;10.90;99.90
37956;DHT22;23776;51.592;7.180;2024-01-30T09:58:16;11.00;99.90
37956;DHT22;23776;51.592;7.180;2024-01-30T10:00:42;11.10;99.90
37956;DHT22;23776;51.592;7.180;2024-01-30T10:03:08;11.20;99.90
37956;DHT22;23776;51.592;7.180;2024-01-30T10:05:35;11.30;99.90
37956;DHT22;23776;51.592;7.180;2024-01-30T10:08:06;11.40;99.90
37956;DHT22;23776;51.592;7.180;2024-01-30T10:10:33;11.60;99.90
37956;DHT22;23776;51.592;7.180;2024-01-30T10:12:59;11.60;99.90
37956;DHT22;23776;51.592;7.180;2024-01-30T10:15:25;11.70;99.90
37956;DHT22;23776;51.592;7.180;2024-01-30T10:17:53;11.80;99.90
37956;DHT22;23776;51.592;7.180;2024-01-30T10:20:18;12.00;99.90
37956;DHT22;23776;51.592;7.180;2024-01-30T10:22:45;12.20;65.80
37956;DHT22;23776;51.592;7.180;2024-01-30T10:25:11;12.30;99.90
37956;DHT22;23776;51.592;7.180;2024-01-30T10:27:36;12.50;99.90
37956;DHT22;23776;51.592;7.180;2024-01-30T10:30:05;12.60;56.50
37956;DHT22;23776;51.592;7.180;2024-01-30T10:32:30;12.70;1.00
37956;DHT22;23776;51.592;7.180;2024-01-30T10:34:56;12.70;1.00
37956;DHT22;23776;51.592;7.180;2024-01-30T10:37:25;12.90;99.90
37956;DHT22;23776;51.592;7.180;2024-01-30T10:39:53;12.90;99.90
37956;DHT22;23776;51.592;7.180;2024-01-30T10:42:20;13.00;99.90
37956;DHT22;23776;51.592;7.180;2024-01-30T10:45:05;13.20;1.00
37956;DHT22;23776;51.592;7.180;2024-01-30T10:47:34;13.20;99.90
37956;DHT22;23776;51.592;7.180;2024-01-30T10:50:00;13.30;1.00
37956;DHT22;23776;51.592;7.180;2024-01-30T10:52:28;13.30;99.90
37956;DHT22;23776;51.592;7.180;2024-01-30T10:54:55;13.40;99.90
37956;DHT22;23776;51.592;7.180;2024-01-30T10:57:24;13.40;1.00
37956;DHT22;23776;51.592;7.180;2024-01-30T10:59:57;13.40;1.00
37956;DHT22;23776;51.592;7.180;2024-01-30T11:02:24;13.40;53.50
37956;DHT22;23776;51.592;7.180;2024-01-30T11:04:57;13.50;99.90
37956;DHT22;23776;51.592;7.180;2024-01-30T11:07:29;13.50;99.90
37956;DHT22;23776;51.592;7.180;2024-01-30T11:12:25;13.40;99.90
37956;DHT22;23776;51.592;7.180;2024-01-30T11:17:42;13.20;99.90
37956;DHT22;23776;51.592;7.180;2024-01-30T11:20:12;13.30;99.90
37956;DHT22;23776;51.592;7.180;2024-01-30T11:22:41;13.20;99.90
37956;DHT22;23776;51.592;7.180;2024-01-30T11:25:11;13.30;99.90
37956;DHT22;23776;51.592;7.180;2024-01-30T11:27:37;13.30;99.90
37956;DHT22;23776;51.592;7.180;2024-01-30T11:30:04;13.40;71.10
37956;DHT22;23776;51.592;7.180;2024-01-30T11:32:29;13.40;99.90
37956;DHT22;23776;51.592;7.180;2024-01-30T11:34:55;13.30;99.90
37956;DHT22;23776;51.592;7.180;2024-01-30T11:37:21;13.10;1.00
37956;DHT22;23776;51.592;7.180;2024-01-30T11:39:51;13.10;54.70
37956;DHT22;23776;51.592;7.180;2024-01-30T11:42:16;13.00;99.90
37956;DHT22;23776;51.592;7.180;2024-01-30T11:44:49;13.00;99.90
37956;DHT22;23776;51.592;7.180;2024-01-30T11:47:15;12.90;1.00
37956;DHT22;23776;51.592;7.180;2024-01-30T11:49:41;12.90;1.00
37956;DHT22;23776;51.592;7.180;2024-01-30T11:52:07;12.80;99.90
37956;DHT22;23776;51.592;7.180;2024-01-30T11:54:32;12.90;1.00
37956;DHT22;23776;51.592;7.180;2024-01-30T11:56:58;12.90;27.40
37956;DHT22;23776;51.592;7.180;2024-01-30T11:59:24;12.90;75.20
37956;DHT22;23776;51.592;7.180;2024-01-30T12:01:51;12.80;99.90
37956;DHT22;23776;51.592;7.180;2024-01-30T12:04:17;12.90;99.90
37956;DHT22;23776;51.592;7.180;2024-01-30T12:06:43;12.90;74.60
37956;DHT22;23776;51.592;7.180;2024-01-30T12:09:09;12.90;99.90
37956;DHT22;23776;51.592;7.180;2024-01-30T12:11:48;12.80;99.90
37956;DHT22;23776;51.592;7.180;2024-01-30T12:14:16;12.90;99.90
37956;DHT22;23776;51.592;7.180;2024-01-30T12:16:42;12.90;99.90
37956;DHT22;23776;51.592;7.180;2024-01-30T12:19:08;12.80;99.90
37956;DHT22;23776;51.592;7.180;2024-01-30T12:21:34;12.80;1.00
37956;DHT22;23776;51.592;7.180;2024-01-30T12:24:00;12.80;1.00
37956;DHT22;23776;51.592;7.180;2024-01-30T12:26:26;12.80;1.00
37956;DHT22;23776;51.592;7.180;2024-01-30T12:28:55;12.80;1.00
37956;DHT22;23776;51.592;7.180;2024-01-30T12:31:32;12.80;1.00
37956;DHT22;23776;51.592;7.180;2024-01-30T12:33:59;12.80;2.80
37956;DHT22;23776;51.592;7.180;2024-01-30T12:36:25;12.80;81.70
37956;DHT22;23776;51.592;7.180;2024-01-30T12:38:51;12.80;99.90
37956;DHT22;23776;51.592;7.180;2024-01-30T12:41:17;12.80;99.90
37956;DHT22;23776;51.592;7.180;2024-01-30T12:43:43;12.80;99.90
37956;DHT22;23776;51.592;7.180;2024-01-30T12:46:09;12.80;99.90
37956;DHT22;23776;51.592;7.180;2024-01-30T12:48:35;12.80;99.90
37956;DHT22;23776;51.592;7.180;2024-01-30T12:51:00;12.80;99.90
37956;DHT22;23776;51.592;7.180;2024-01-30T12:53:26;12.80;99.90
37956;DHT22;23776;51.592;7.180;2024-01-30T12:55:52;12.80;99.90
37956;DHT22;23776;51.592;7.180;2024-01-30T12:58:19;12.80;99.90
37956;DHT22;23776;51.592;7.180;2024-01-30T13:00:45;12.80;99.90
37956;DHT22;23776;51.592;7.180;2024-01-30T13:03:11;12.80;99.90
37956;DHT22;23776;51.592;7.180;2024-01-30T13:05:37;12.80;99.90
37956;DHT22;23776;51.592;7.180;2024-01-30T13:08:03;12.80;99.90
37956;DHT22;23776;51.592;7.180;2024-01-30T13:10:28;12.90;99.90
37956;DHT22;23776;51.592;7.180;2024-01-30T13:12:54;12.80;99.90
37956;DHT22;23776;51.592;7.180;2024-01-30T13:15:19;11.70;99.90
37956;DHT22;23776;51.592;7.180;2024-01-30T13:17:45;12.80;99.90
37956;DHT22;23776;51.592;7.180;2024-01-30T13:20:13;12.80;99.90
37956;DHT22;23776;51.592;7.180;2024-01-30T13:22:43;12.80;99.90
37956;DHT22;23776;51.592;7.180;2024-01-30T13:25:08;12.80;99.90
37956;DHT22;23776;51.592;7.180;2024-01-30T13:27:34;12.70;1.00
37956;DHT22;23776;51.592;7.180;2024-01-30T13:30:00;12.70;1.00
37956;DHT22;23776;51.592;7.180;2024-01-30T13:32:25;12.70;1.00
37956;DHT22;23776;51.592;7.180;2024-01-30T13:34:51;10.60;1.00
37956;DHT22;23776;51.592;7.180;2024-01-30T13:37:17;12.60;1.00
37956;DHT22;23776;51.592;7.180;2024-01-30T13:39:42;12.60;1.00
37956;DHT22;23776;51.592;7.180;2024-01-30T13:42:08;12.60;1.00
37956;DHT22;23776;51.592;7.180;2024-01-30T13:44:35;12.60;1.00
37956;DHT22;23776;51.592;7.180;2024-01-30T13:47:01;12.60;1.00
37956;DHT22;23776;51.592;7.180;2024-01-30T13:49:26;12.60;1.00
37956;DHT22;23776;51.592;7.180;2024-01-30T13:51:52;12.70;1.00
37956;DHT22;23776;51.592;7.180;2024-01-30T13:54:18;12.70;1.00
37956;DHT22;23776;51.592;7.180;2024-01-30T13:56:43;12.70;1.00
37956;DHT22;23776;51.592;7.180;2024-01-30T13:59:09;12.70;1.00
37956;DHT22;23776;51.592;7.180;2024-01-30T14:01:34;12.70;1.00
37956;DHT22;23776;51.592;7.180;2024-01-30T14:04:00;12.70;1.00
37956;DHT22;23776;51.592;7.180;2024-01-30T14:06:25;12.70;1.00
37956;DHT22;23776;51.592;7.180;2024-01-30T14:08:51;12.60;1.00
37956;DHT22;23776;51.592;7.180;2024-01-30T14:11:17;12.60;1.00
37956;DHT22;23776;51.592;7.180;2024-01-30T14:13:42;12.60;1.00
37956;DHT22;23776;51.592;7.180;2024-01-30T14:16:08;12.60;1.00
37956;DHT22;23776;51.592;7.180;2024-01-30T14:18:33;12.50;1.00
37956;DHT22;23776;51.592;7.180;2024-01-30T14:20:59;12.50;1.00
37956;DHT22;23776;51.592;7.180;2024-01-30T14:23:24;12.50;1.00
37956;DHT22;23776;51.592;7.180;2024-01-30T14:25:50;12.60;1.00
37956;DHT22;23776;51.592;7.180;2024-01-30T14:28:17;12.50;1.00
37956;DHT22;23776;51.592;7.180;2024-01-30T14:30:42;12.50;16.50
37956;DHT22;23776;51.592;7.180;2024-01-30T14:33:08;12.50;16.70
37956;DHT22;23776;51.592;7.180;2024-01-30T14:35:33;12.50;8.50
37956;DHT22;23776;51.592;7.180;2024-01-30T14:37:59;12.60;1.00
37956;DHT22;23776;51.592;7.180;2024-01-30T14:40:25;12.60;7.10
37956;DHT22;23776;51.592;7.180;2024-01-30T14:42:50;12.60;1.00
37956;DHT22;23776;51.592;7.180;2024-01-30T14:45:16;12.70;1.00
37956;DHT22;23776;51.592;7.180;2024-01-30T14:47:41;12.70;1.00
37956;DHT22;23776;51.592;7.180;2024-01-30T14:50:07;12.70;1.00
37956;DHT22;23776;51.592;7.180;2024-01-30T14:52:33;12.70;1.00
37956;DHT22;23776;51.592;7.180;2024-01-30T14:54:59;12.70;1.00
37956;DHT22;23776;51.592;7.180;2024-01-30T14:57:25;12.70;1.00
37956;DHT22;23776;51.592;7.180;2024-01-30T14:59:51;12.70;1.00
37956;DHT22;23776;51.592;7.180;2024-01-30T15:02:16;12.70;1.00
37956;DHT22;23776;51.592;7.180;2024-01-30T15:04:42;12.60;99.90
37956;DHT22;23776;51.592;7.180;2024-01-30T15:07:08;12.50;99.90
37956;DHT22;23776;51.592;7.180;2024-01-30T15:09:34;12.50;99.90
37956;DHT22;23776;51.592;7.180;2024-01-30T15:11:59;12.50;99.90
37956;DHT22;23776;51.592;7.180;2024-01-30T15:14:25;12.40;99.90
37956;DHT22;23776;51.592;7.180;2024-01-30T15:16:50;12.20;1.00
37956;DHT22;23776;51.592;7.180;2024-01-30T15:19:16;12.00;99.90
37956;DHT22;23776;51.592;7.180;2024-01-30T15:21:42;11.90;1.00
37956;DHT22;23776;51.592;7.180;2024-01-30T15:24:07;12.00;1.00
37956;DHT22;23776;51.592;7.180;2024-01-30T15:26:33;11.90;1.00
37956;DHT22;23776;51.592;7.180;2024-01-30T15:28:58;11.80;99.90
37956;DHT22;23776;51.592;7.180;2024-01-30T15:31:24;11.70;1.00
37956;DHT22;23776;51.592;7.180;2024-01-30T15:33:50;11.60;99.90
37956;DHT22;23776;51.592;7.180;2024-01-30T15:36:15;11.60;1.00
37956;DHT22;23776;51.592;7.180;2024-01-30T15:38:41;11.60;1.00
37956;DHT22;23776;51.592;7.180;2024-01-30T15:41:07;11.60;1.00
37956;DHT22;23776;51.592;7.180;2024-01-30T15:43:32;11.50;99.90
37956;DHT22;23776;51.592;7.180;2024-01-30T15:45:59;11.60;99.90